Time;durP1;ratioP1;P1;durP2;ratioP2;P2;SDS_P1;SDS_P2;PMS_P1;PMS_P2;Temp;Humidity;BMP_temperature;BMP_pressure;BME280_temperature;BME280_humidity;BME280_pressure;Samples;Min_cycle;Max_cycle;Signal;HPM_P1;HPM_P2
2021/01/11 00:00:22;;;;;;;102.00;48.25;;;;;;;1.52;84.30;101288.34;1708854;82;27337;-77
2021/01/11 00:02:52;;;;;;;102.92;49.77;;;;;;;1.50;84.20;101292.89;1734173;81;25795;-78
2021/01/11 00:05:20;;;;;;;107.07;49.45;;;;;;;1.50;84.28;101288.08;1679672;82;25865;-77
2021/01/11 00:07:47;;;;;;;104.80;48.38;;;;;;;1.52;84.38;101289.66;1688323;81;26423;-78
2021/01/11 00:10:15;;;;;;;100.70;50.23;;;;;;;1.50;84.16;101284.97;1649632;84;25830;-78
2021/01/11 00:12:44;;;;;;;107.17;48.75;;;;;;;1.46;84.25;101280.87;1718245;82;28762;-78
2021/01/11 00:17:51;;;;;;;104.63;48.85;;;;;;;1.53;84.30;101274.67;1830193;77;25829;-77
2021/01/11 00:20:19;;;;;;;112.77;48.60;;;;;;;1.48;84.29;101278.96;1781059;78;25848;-79
2021/01/11 00:22:46;;;;;;;99.10;46.02;;;;;;;1.44;84.13;101294.66;1752569;78;27301;-77
2021/01/11 00:25:14;;;;;;;98.90;45.05;;;;;;;1.40;84.16;101286.61;1801254;78;25854;-77
2021/01/11 00:27:42;;;;;;;96.40;46.02;;;;;;;1.38;84.29;101285.88;1761280;78;26518;-79
2021/01/11 00:30:12;;;;;;;94.45;43.90;;;;;;;1.37;84.32;101285.50;1725994;81;26600;-77
2021/01/11 00:32:40;;;;;;;99.42;47.67;;;;;;;1.33;84.28;101290.63;1736671;80;26195;-77
2021/01/11 00:35:09;;;;;;;91.95;44.58;;;;;;;1.32;84.42;101288.97;1744899;81;27822;-78
2021/01/11 00:37:38;;;;;;;94.30;45.50;;;;;;;1.33;84.44;101295.06;1672686;81;25947;-76
2021/01/11 00:40:07;;;;;;;94.92;46.20;;;;;;;1.33;84.47;101294.59;1739051;81;26126;-77
2021/01/11 00:42:36;;;;;;;103.30;47.55;;;;;;;1.34;84.48;101298.08;1720121;81;25976;-76
2021/01/11 00:45:08;;;;;;;90.90;46.28;;;;;;;1.34;84.58;101292.34;1762026;80;26162;-78
2021/01/11 00:47:41;;;;;;;92.47;46.90;;;;;;;1.37;84.51;101288.61;1663772;83;28578;-76
2021/01/11 00:50:11;;;;;;;94.87;45.70;;;;;;;1.39;84.64;101287.55;1667464;82;25832;-78
2021/01/11 00:52:39;;;;;;;92.50;45.43;;;;;;;1.45;84.65;101289.73;1724362;81;25853;-77
2021/01/11 00:55:10;;;;;;;92.20;46.53;;;;;;;1.48;84.57;101286.88;1745504;81;25767;-76
2021/01/11 00:57:39;;;;;;;93.50;45.58;;;;;;;1.48;84.41;101289.99;1728070;81;26202;-77
2021/01/11 01:00:11;;;;;;;94.60;44.60;;;;;;;1.46;84.40;101291.91;1712390;82;27543;-78
2021/01/11 01:02:40;;;;;;;93.87;44.93;;;;;;;1.46;84.40;101295.86;1748403;81;26474;-80
2021/01/11 01:05:11;;;;;;;95.17;45.92;;;;;;;1.48;84.40;101296.12;1751235;81;25809;-77
2021/01/11 01:07:39;;;;;;;;;;;;;;;1.47;84.32;101290.97;1697141;81;25976;-77
2021/01/11 01:10:08;;;;;;;88.25;40.75;;;;;;;1.49;84.29;101295.18;1729167;82;26598;-79
2021/01/11 01:12:35;;;;;;;88.58;43.95;;;;;;;1.44;84.38;101289.38;1716887;81;28296;-77
2021/01/11 01:15:06;;;;;;;99.37;48.02;;;;;;;1.47;84.38;101292.28;1667931;81;25850;-78
2021/01/11 01:17:37;;;;;;;98.45;46.85;;;;;;;1.45;84.41;101287.09;1728359;81;33167;-77
2021/01/11 01:20:14;;;;;;;90.87;44.42;;;;;;;1.47;84.46;101291.81;1756961;81;25858;-78
2021/01/11 01:22:36;;;;;;;92.82;45.50;;;;;;;1.47;84.40;101291.81;1729046;81;25980;-77
2021/01/11 01:25:07;;;;;;;99.85;47.17;;;;;;;1.48;84.41;101288.67;1731276;80;27736;-79
2021/01/11 01:27:34;;;;;;;96.30;45.95;;;;;;;1.47;84.39;101289.64;1746626;80;26370;-77
2021/01/11 01:30:01;;;;;;;91.75;44.65;;;;;;;1.48;84.49;101287.35;1733136;81;25358;-78
2021/01/11 01:32:29;;;;;;;97.42;48.35;;;;;;;1.48;84.45;101284.24;1737350;81;26353;-78
2021/01/11 01:34:56;;;;;;;102.20;47.62;;;;;;;1.47;84.53;101291.81;1727533;80;25428;-79
2021/01/11 01:37:23;;;;;;;96.10;45.35;;;;;;;1.49;84.53;101285.94;1747041;80;27469;-77
2021/01/11 01:39:51;;;;;;;100.38;48.17;;;;;;;1.52;84.55;101275.14;1742957;80;25874;-79
2021/01/11 01:42:18;;;;;;;96.90;47.85;;;;;;;1.51;84.52;101278.75;1740045;80;25845;-79
2021/01/11 01:44:46;;;;;;;91.05;44.75;;;;;;;1.49;84.42;101281.13;1697502;81;26179;-78
2021/01/11 01:47:13;;;;;;;91.12;43.87;;;;;;;1.46;84.31;101278.70;1747813;80;25914;-77
2021/01/11 01:49:41;;;;;;;97.95;47.33;;;;;;;1.43;84.34;101280.27;1713823;81;27540;-77
2021/01/11 01:52:09;;;;;;;86.12;43.08;;;;;;;1.40;84.37;101274.73;1704394;80;25818;-79
2021/01/11 01:54:36;;;;;;;88.67;44.88;;;;;;;1.39;84.38;101272.21;1749294;81;26479;-78
2021/01/11 01:57:06;;;;;;;94.25;45.40;;;;;;;1.38;84.49;101274.47;1756058;80;26087;-78
2021/01/11 01:59:33;;;;;;;95.55;46.90;;;;;;;1.37;84.50;101264.84;1736994;80;25860;-76
2021/01/11 02:02:01;;;;;;;98.40;44.85;;;;;;;1.39;84.63;101271.70;1736581;80;27294;-77
2021/01/11 02:04:29;;;;;;;89.45;43.35;;;;;;;1.41;84.59;101275.08;1744877;80;26443;-78
2021/01/11 02:07:07;;;;;;;87.40;44.58;;;;;;;1.39;84.51;101275.67;1753161;80;26495;-79
2021/01/11 02:10:01;;;;;;;92.95;44.65;;;;;;;1.39;84.59;101269.57;1712980;82;25915;-78
2021/01/11 02:12:36;;;;;;;89.30;43.50;;;;;;;1.39;84.60;101266.43;1692664;81;25953;-81
2021/01/11 02:15:09;;;;;;;94.70;43.75;;;;;;;1.40;84.57;101278.69;1711037;81;27556;-78
2021/01/11 02:17:47;;;;;;;95.17;46.95;;;;;;;1.39;84.51;101273.53;1763106;80;26411;-77
2021/01/11 02:20:38;;;;;;;86.15;43.70;;;;;;;1.39;84.57;101276.17;1734045;81;25812;-77
2021/01/11 02:23:43;;;;;;;92.20;43.65;;;;;;;1.37;84.49;101276.26;1738313;81;25461;-77
2021/01/11 02:26:40;;;;;;;90.38;43.95;;;;;;;1.38;84.61;101277.95;1746977;81;25782;-76
2021/01/11 02:29:31;;;;;;;87.60;42.48;;;;;;;1.36;84.46;101278.55;1759439;80;27540;-78
2021/01/11 02:32:00;;;;;;;100.15;47.00;;;;;;;1.30;84.50;101276.36;1754247;80;26136;-77
2021/01/11 02:34:29;;;;;;;84.52;41.30;;;;;;;1.28;84.48;101286.66;1756944;80;26222;-76
2021/01/11 02:37:00;;;;;;;87.10;43.85;;;;;;;1.26;84.50;101278.83;1735724;80;25766;-76
2021/01/11 02:39:27;;;;;;;93.47;43.85;;;;;;;1.23;84.52;101279.06;1719842;81;26177;-77
2021/01/11 02:41:55;;;;;;;85.20;40.92;;;;;;;1.24;84.71;101274.14;1734733;80;27530;-77
2021/01/11 02:44:22;;;;;;;89.72;44.20;;;;;;;1.23;84.62;101273.79;1764046;80;26172;-76
2021/01/11 02:46:49;;;;;;;87.97;41.05;;;;;;;1.26;84.72;101275.38;1736120;80;25867;-77
2021/01/11 02:49:28;;;;;;;94.92;45.78;;;;;;;1.25;84.61;101279.80;1728482;80;25980;-75
2021/01/11 02:52:10;;;;;;;93.33;45.98;;;;;;;1.24;84.70;101264.91;1754605;80;25759;-77
2021/01/11 02:54:46;;;;;;;95.83;46.40;;;;;;;1.30;84.84;101265.80;1739386;80;27542;-77
2021/01/11 02:57:34;;;;;;;93.10;43.42;;;;;;;1.31;84.66;101262.20;1736392;80;25920;-75
2021/01/11 03:00:05;;;;;;;92.53;43.60;;;;;;;1.32;84.72;101264.36;1732893;80;25398;-76
2021/01/11 03:02:40;;;;;;;93.55;44.23;;;;;;;1.35;84.67;101262.80;1743630;80;25822;-77
2021/01/11 03:05:10;;;;;;;90.03;44.08;;;;;;;1.35;84.59;101256.20;1735966;81;25794;-78
2021/01/11 03:07:37;;;;;;;93.20;44.13;;;;;;;1.32;84.56;101242.78;1722702;81;28265;-78
2021/01/11 03:10:06;;;;;;;96.65;46.70;;;;;;;1.31;84.58;101246.36;1726774;82;25845;-76
2021/01/11 03:12:33;;;;;;;93.87;46.73;;;;;;;1.31;84.65;101243.72;1722484;81;25871;-77
2021/01/11 03:15:01;;;;;;;93.00;46.25;;;;;;;1.32;84.64;101236.19;1696590;82;25894;-76
2021/01/11 03:17:28;;;;;;;99.60;46.10;;;;;;;1.31;84.60;101238.44;1733857;81;26427;-76
2021/01/11 03:19:55;;;;;;;85.83;42.67;;;;;;;1.33;84.50;101226.45;1709437;81;28790;-77
2021/01/11 03:22:23;;;;;;;88.37;45.25;;;;;;;1.30;84.43;101234.61;1711720;81;26437;-79
2021/01/11 03:24:50;;;;;;;95.62;45.00;;;;;;;1.27;84.49;101228.22;1750063;81;26442;-78
2021/01/11 03:27:17;;;;;;;99.87;46.35;;;;;;;1.26;84.57;101229.19;1723320;81;25963;-77
2021/01/11 03:29:45;;;;;;;94.22;43.35;;;;;;;1.25;84.53;101228.34;1723931;81;25766;-77
2021/01/11 03:32:12;;;;;;;96.95;46.50;;;;;;;1.25;84.62;101227.02;1721023;81;28523;-77
2021/01/11 03:34:39;;;;;;;100.47;46.73;;;;;;;1.25;84.60;101234.09;1752670;81;26133;-76
2021/01/11 03:37:07;;;;;;;100.07;47.33;;;;;;;1.26;84.67;101224.73;1726564;81;25872;-78
2021/01/11 03:39:34;;;;;;;102.42;49.23;;;;;;;1.31;84.77;101219.12;1709714;81;26279;-77
2021/01/11 03:42:01;;;;;;;96.32;44.95;;;;;;;1.30;84.75;101218.77;1720369;82;25814;-77
2021/01/11 03:44:29;;;;;;;98.15;45.85;;;;;;;1.32;84.67;101225.62;1751414;81;27605;-78
2021/01/11 03:46:56;;;;;;;96.02;44.25;;;;;;;1.31;84.60;101221.75;1723588;81;26568;-77
2021/01/11 03:49:24;;;;;;;97.55;46.68;;;;;;;1.32;84.68;101222.14;1723017;81;25876;-78
2021/01/11 03:51:52;;;;;;;94.30;44.27;;;;;;;1.32;84.66;101219.50;1722559;81;26506;-76
2021/01/11 03:54:19;;;;;;;88.47;41.30;;;;;;;1.33;84.65;101219.84;1725299;81;26434;-78
2021/01/11 03:56:46;;;;;;;87.00;43.00;;;;;;;1.32;84.64;101216.39;1722750;81;27609;-77
2021/01/11 03:59:14;;;;;;;91.20;40.85;;;;;;;1.31;84.66;101209.41;1726433;81;25942;-78
2021/01/11 04:01:41;;;;;;;92.70;41.68;;;;;;;1.32;84.60;101211.11;1708290;82;25976;-78
2021/01/11 04:04:08;;;;;;;94.05;43.45;;;;;;;1.31;84.63;101201.97;1686428;81;25950;-77
2021/01/11 04:06:36;;;;;;;91.10;43.70;;;;;;;1.29;84.66;101208.69;1723208;81;25892;-76
2021/01/11 04:09:04;;;;;;;93.45;46.45;;;;;;;1.33;84.80;101205.33;1737904;81;28748;-79
2021/01/11 04:11:31;;;;;;;93.90;45.20;;;;;;;1.38;84.79;101202.73;1704946;82;26533;-77
2021/01/11 04:13:59;;;;;;;92.75;43.10;;;;;;;1.39;84.66;101198.30;1724279;81;26494;-78
2021/01/11 04:16:26;;;;;;;93.10;40.78;;;;;;;1.39;84.62;101188.56;1752482;81;25663;-76
2021/01/11 04:18:54;;;;;;;101.70;45.17;;;;;;;1.37;84.56;101188.31;1716981;81;25815;-78
2021/01/11 04:21:21;;;;;;;93.17;45.30;;;;;;;1.37;84.67;101187.84;1720752;81;28460;-76
2021/01/11 04:23:48;;;;;;;97.88;42.43;;;;;;;1.40;84.62;101183.66;1702215;81;25937;-79
2021/01/11 04:26:16;;;;;;;99.22;42.80;;;;;;;1.41;84.44;101185.84;1748508;81;25995;-78
2021/01/11 04:28:43;;;;;;;99.13;45.00;;;;;;;1.39;84.35;101178.01;1723568;81;25894;-78
2021/01/11 04:31:10;;;;;;;95.97;45.33;;;;;;;1.39;84.47;101179.33;1701367;82;25887;-77
2021/01/11 04:33:39;;;;;;;86.72;42.98;;;;;;;1.37;84.28;101174.64;1714522;81;28509;-76
2021/01/11 04:36:07;;;;;;;96.37;45.15;;;;;;;1.37;84.25;101171.16;1746215;81;26481;-77
2021/01/11 04:38:34;;;;;;;90.38;44.23;;;;;;;1.36;84.20;101174.30;1721216;81;25691;-78
2021/01/11 04:41:05;;;;;;;94.67;46.37;;;;;;;1.37;84.14;101173.80;1704711;81;26536;-79
2021/01/11 04:43:45;;;;;;;98.05;45.73;;;;;;;1.36;84.09;101173.45;1741108;81;25723;-77
2021/01/11 04:46:13;;;;;;;93.62;44.80;;;;;;;1.35;84.00;101179.67;1723906;81;28009;-78
2021/01/11 04:48:42;;;;;;;98.87;47.20;;;;;;;1.35;83.92;101180.98;1721026;81;25880;-77
2021/01/11 04:51:11;;;;;;;108.15;47.58;;;;;;;1.33;83.89;101182.43;1676239;82;25893;-77
2021/01/11 04:53:44;;;;;;;97.00;46.80;;;;;;;1.34;83.92;101170.08;1718009;81;25845;-76
2021/01/11 04:56:12;;;;;;;95.55;44.53;;;;;;;1.33;83.81;101172.34;1720262;81;26509;-78
2021/01/11 04:58:59;;;;;;;100.82;45.10;;;;;;;1.32;83.78;101168.89;1696105;82;29231;-78
2021/01/11 05:01:28;;;;;;;97.25;45.60;;;;;;;1.30;83.80;101170.80;1742438;81;25914;-78
2021/01/11 05:04:00;;;;;;;102.50;47.43;;;;;;;1.31;83.79;101167.66;1729775;81;26494;-81
2021/01/11 05:06:29;;;;;;;97.50;46.53;;;;;;;1.30;83.84;101169.48;1746229;81;26462;-78
2021/01/11 05:09:08;;;;;;;99.22;46.35;;;;;;;1.31;83.85;101165.87;1714798;82;25822;-78
2021/01/11 05:11:35;;;;;;;98.30;47.50;;;;;;;1.30;83.86;101161.56;1746358;81;28478;-78
2021/01/11 05:14:03;;;;;;;108.52;49.53;;;;;;;1.30;83.78;101160.24;1738112;81;25860;-77
2021/01/11 05:16:30;;;;;;;104.17;46.23;;;;;;;1.30;83.70;101155.44;1696974;81;26570;-76
2021/01/11 05:19:24;;;;;;;102.65;45.40;;;;;;;1.27;83.62;101151.22;1691365;81;25812;-77
2021/01/11 05:21:52;;;;;;;107.55;46.70;;;;;;;1.27;83.67;101160.45;1715595;81;26377;-82
2021/01/11 05:24:35;;;;;;;95.72;46.42;;;;;;;1.24;83.61;101158.03;1742554;81;27533;-78
2021/01/11 05:27:08;;;;;;;110.68;48.85;;;;;;;1.23;83.60;101157.69;1742980;81;25767;-76
2021/01/11 05:29:38;;;;;;;113.95;51.88;;;;;;;1.21;83.63;101163.55;1719243;81;25801;-75
2021/01/11 05:32:08;;;;;;;108.27;49.27;;;;;;;1.19;83.68;101154.91;1698054;83;25879;-77
2021/01/11 05:34:52;;;;;;;101.07;46.55;;;;;;;1.20;83.77;101160.53;1717852;81;26535;-77
2021/01/11 05:37:39;;;;;;;102.65;47.80;;;;;;;1.25;83.65;101158.41;1808349;78;25632;-77
2021/01/11 05:40:16;;;;;;;103.60;49.25;;;;;;;1.19;83.54;101156.70;1732755;80;26413;-76
2021/01/11 05:42:54;;;;;;;107.05;48.55;;;;;;;1.18;83.43;101153.69;1768543;78;27589;-77
2021/01/11 05:45:34;;;;;;;103.85;48.83;;;;;;;1.10;83.24;101158.22;1704201;83;25746;-77
2021/01/11 05:48:11;;;;;;;98.47;46.73;;;;;;;1.07;83.27;101156.30;1718676;83;25827;-76
2021/01/11 05:50:47;;;;;;;106.67;48.75;;;;;;;0.98;83.18;101155.64;1703512;80;25887;-76
2021/01/11 05:53:27;;;;;;;113.22;48.92;;;;;;;0.96;83.40;101151.81;1737206;80;25704;-75
2021/01/11 05:55:56;;;;;;;110.68;49.05;;;;;;;0.97;83.37;101157.91;1726022;80;27111;-76
2021/01/11 05:58:25;;;;;;;104.45;46.77;;;;;;;0.96;83.38;101154.92;1722853;82;25827;-75
2021/01/11 06:00:52;;;;;;;103.32;49.55;;;;;;;0.95;83.37;101156.70;1691888;80;26359;-78
2021/01/11 06:03:20;;;;;;;107.40;49.05;;;;;;;0.94;83.36;101158.14;1733460;80;25795;-77
2021/01/11 06:05:47;;;;;;;104.70;49.70;;;;;;;0.92;83.32;101166.14;1729844;81;26224;-78
2021/01/11 06:08:15;;;;;;;106.63;48.20;;;;;;;0.89;83.16;101163.75;1732368;81;27702;-77
2021/01/11 06:10:45;;;;;;;98.22;48.87;;;;;;;0.87;83.24;101167.45;1706294;81;25875;-77
2021/01/11 06:13:13;;;;;;;107.72;50.80;;;;;;;0.85;83.32;101169.36;1712950;81;26223;-77
2021/01/11 06:15:42;;;;;;;98.20;47.45;;;;;;;0.85;83.25;101173.31;1705115;81;26548;-77
2021/01/11 06:18:12;;;;;;;102.10;47.85;;;;;;;0.80;83.13;101173.64;1716896;81;26137;-77
2021/01/11 06:20:47;;;;;;;99.35;46.37;;;;;;;0.73;83.12;101171.92;1660822;83;28465;-77
2021/01/11 06:23:26;;;;;;;97.82;43.63;;;;;;;0.72;83.25;101173.35;1696458;81;26491;-79
2021/01/11 06:25:54;;;;;;;104.38;47.03;;;;;;;0.68;83.11;101171.89;1721751;82;25830;-77
2021/01/11 06:28:32;;;;;;;101.47;44.03;;;;;;;0.64;83.29;101169.93;1715535;82;26463;-76
2021/01/11 06:31:14;;;;;;;96.75;44.40;;;;;;;0.58;83.11;101173.48;1678785;82;25849;-77
2021/01/11 06:33:42;;;;;;;94.07;43.20;;;;;;;0.52;83.29;101177.41;1705896;82;28246;-77
2021/01/11 06:36:26;;;;;;;94.92;44.60;;;;;;;0.48;83.28;101171.14;1703339;82;25795;-77
2021/01/11 06:38:54;;;;;;;94.55;43.50;;;;;;;0.43;83.33;101171.45;1710009;82;25928;-77
2021/01/11 06:41:32;;;;;;;90.12;40.55;;;;;;;0.42;83.43;101172.42;1690300;83;25825;-78
2021/01/11 06:44:09;;;;;;;86.50;37.48;;;;;;;0.37;83.46;101165.31;1694102;83;25764;-77
2021/01/11 06:46:42;;;;;;;93.62;41.02;;;;;;;0.31;83.45;101166.22;1707035;82;28141;-77
2021/01/11 06:49:24;;;;;;;86.63;38.35;;;;;;;0.25;83.58;101167.97;1722700;82;25776;-78
2021/01/11 06:52:05;;;;;;;84.07;38.13;;;;;;;0.23;83.65;101168.08;1704310;82;26016;-77
2021/01/11 06:54:44;;;;;;;93.30;40.52;;;;;;;0.20;83.78;101165.65;1687648;82;25773;-76
2021/01/11 06:57:23;;;;;;;84.35;38.45;;;;;;;0.17;83.94;101176.88;1717045;82;25972;-78
2021/01/11 06:59:52;;;;;;;89.52;40.20;;;;;;;0.12;83.94;101169.30;1730420;81;27629;-78
2021/01/11 07:02:25;;;;;;;77.85;36.65;;;;;;;0.10;84.08;101174.30;1707001;81;25800;-77
2021/01/11 07:04:54;;;;;;;87.70;38.00;;;;;;;0.04;84.10;101174.73;1718385;82;25857;-77
2021/01/11 07:07:25;;;;;;;85.30;38.37;;;;;;;0.06;84.25;101169.73;1717607;81;25838;-76
2021/01/11 07:09:57;;;;;;;84.45;36.50;;;;;;;0.09;84.25;101170.81;1750290;80;25838;-77
2021/01/11 07:12:27;;;;;;;84.37;35.15;;;;;;;0.07;84.21;101170.55;1729250;81;28594;-76
2021/01/11 07:15:02;;;;;;;88.33;38.17;;;;;;;0.04;84.27;101170.78;1741249;80;25814;-78
2021/01/11 07:17:41;;;;;;;87.85;37.73;;;;;;;0.01;84.39;101165.24;1722701;82;25878;-78
2021/01/11 07:20:13;;;;;;;89.75;40.60;;;;;;;0.02;84.51;101172.20;1722224;81;25912;-77
2021/01/11 07:22:42;;;;;;;88.70;38.48;;;;;;;0.05;84.60;101171.98;1715152;80;26637;-77
2021/01/11 07:25:22;;;;;;;77.90;34.58;;;;;;;0.08;84.66;101169.15;1713981;80;26790;-78
2021/01/11 07:28:04;;;;;;;82.62;39.25;;;;;;;0.11;84.59;101169.41;1688438;83;26040;-78
2021/01/11 07:30:34;;;;;;;81.65;37.28;;;;;;;0.10;84.63;101169.88;1730893;81;26104;-77
2021/01/11 07:33:13;;;;;;;88.80;40.05;;;;;;;0.15;84.61;101175.66;1691153;81;25836;-76
2021/01/11 07:35:40;;;;;;;87.00;37.90;;;;;;;0.17;84.70;101176.88;1704663;81;25346;-78
2021/01/11 07:38:13;;;;;;;79.22;36.13;;;;;;;0.16;84.55;101183.09;1697763;81;28319;-77
2021/01/11 07:40:40;;;;;;;79.27;34.80;;;;;;;0.15;84.59;101180.92;1726800;81;25813;-79
2021/01/11 07:43:08;;;;;;;90.07;40.65;;;;;;;0.14;84.57;101177.94;1704055;81;25855;-77
2021/01/11 07:45:36;;;;;;;86.63;39.98;;;;;;;0.16;84.65;101187.04;1708594;82;25899;-81
2021/01/11 07:48:06;;;;;;;76.22;36.10;;;;;;;0.17;84.65;101183.47;1714610;81;25925;-80
2021/01/11 07:50:34;;;;;;;78.35;32.80;;;;;;;0.17;84.61;101182.97;1730838;81;27554;-78
2021/01/11 07:53:02;;;;;;;72.85;32.95;;;;;;;0.16;84.56;101180.45;1690499;81;26116;-78
2021/01/11 07:55:33;;;;;;;78.45;35.75;;;;;;;0.15;84.60;101180.10;1681573;83;25834;-77
2021/01/11 07:58:03;;;;;;;74.60;34.58;;;;;;;0.16;84.62;101183.09;1725132;81;26218;-77
2021/01/11 08:00:31;;;;;;;84.15;35.85;;;;;;;0.17;84.61;101191.38;1737292;81;25919;-76
2021/01/11 08:02:59;;;;;;;73.05;32.10;;;;;;;0.19;84.68;101188.16;1691162;81;27767;-77
2021/01/11 08:05:26;;;;;;;75.40;34.58;;;;;;;0.23;84.61;101192.27;1698239;82;25804;-79
2021/01/11 08:08:06;;;;;;;79.32;36.20;;;;;;;0.26;84.64;101182.81;1689039;82;26177;-77
2021/01/11 08:10:35;;;;;;;75.32;33.00;;;;;;;0.31;84.66;101182.02;1717790;83;26397;-77
2021/01/11 08:13:09;;;;;;;68.33;31.30;;;;;;;0.32;84.49;101181.09;1710621;80;26327;-79
2021/01/11 08:15:38;;;;;;;83.47;35.95;;;;;;;0.30;84.35;101179.04;1680635;82;26016;-78
2021/01/11 08:18:09;;;;;;;84.60;36.00;;;;;;;0.30;84.38;101182.98;1698915;81;26080;-78
2021/01/11 08:20:38;;;;;;;80.60;35.73;;;;;;;0.31;84.34;101175.44;1744388;81;26479;-79
2021/01/11 08:23:12;;;;;;;74.40;31.62;;;;;;;0.33;84.35;101180.13;1710165;81;25895;-83
2021/01/11 08:25:40;;;;;;;76.35;31.23;;;;;;;0.34;84.33;101176.05;1699059;81;26491;-78
2021/01/11 08:28:11;;;;;;;83.37;36.05;;;;;;;0.37;84.33;101179.80;1688192;83;27334;-82
2021/01/11 08:30:39;;;;;;;77.60;33.43;;;;;;;0.39;84.35;101178.37;1723135;82;26068;-81
2021/01/11 08:33:08;;;;;;;79.70;34.03;;;;;;;0.40;84.18;101177.44;1696238;81;25908;-77
2021/01/11 08:35:36;;;;;;;77.32;34.88;;;;;;;0.40;84.24;101174.80;1702949;82;26250;-81
2021/01/11 08:38:05;;;;;;;76.12;35.92;;;;;;;0.41;84.21;101175.15;1704208;83;25927;-82
2021/01/11 08:40:34;;;;;;;79.75;35.65;;;;;;;0.46;84.45;101179.16;1737473;80;27597;-79
2021/01/11 08:43:19;;;;;;;77.60;35.85;;;;;;;0.50;84.34;101175.36;1696054;82;26471;-78
2021/01/11 08:45:47;;;;;;;84.97;36.80;;;;;;;0.57;84.34;101177.08;1704535;83;25656;-82
2021/01/11 08:48:17;;;;;;;79.77;35.95;;;;;;;0.62;84.37;101183.70;1737315;80;25891;-80
2021/01/11 08:50:52;;;;;;;87.85;38.75;;;;;;;0.69;84.39;101182.32;1696515;83;26099;-78
2021/01/11 08:53:29;;;;;;;93.87;40.43;;;;;;;0.72;84.20;101182.11;1688651;81;27679;-83
2021/01/11 08:56:09;;;;;;;93.37;41.73;;;;;;;0.73;84.10;101186.89;1723074;82;26711;-80
2021/01/11 08:58:48;;;;;;;91.28;39.38;;;;;;;0.77;84.15;101184.39;1722677;82;25814;-81
2021/01/11 09:04:02;;;;;;;76.60;34.88;;;;;;;0.92;83.89;101187.75;1833717;77;25363;-79
2021/01/11 09:06:44;;;;;;;74.10;34.85;;;;;;;0.87;83.77;101181.95;1749237;78;25764;-80
2021/01/11 09:09:19;;;;;;;72.40;32.80;;;;;;;0.88;83.69;101178.38;1772479;79;27249;-80
2021/01/11 09:11:48;;;;;;;77.42;33.53;;;;;;;0.89;83.54;101183.53;1794308;78;25820;-81
2021/01/11 09:14:18;;;;;;;70.85;32.13;;;;;;;0.93;83.58;101181.50;1797676;78;25834;-80
2021/01/11 09:16:48;;;;;;;69.95;33.65;;;;;;;0.91;83.32;101177.67;1753647;78;26146;-81
2021/01/11 09:19:19;;;;;;;79.97;33.85;;;;;;;0.93;83.29;101188.94;1775810;78;25903;-82
2021/01/11 09:22:06;;;;;;;76.90;33.28;;;;;;;0.95;83.23;101177.80;1778451;78;27429;-79
2021/01/11 09:24:34;;;;;;;80.75;35.40;;;;;;;0.97;83.26;101179.00;1805955;78;26183;-80
2021/01/11 09:27:02;;;;;;;71.02;31.85;;;;;;;1.02;83.50;101181.69;1765048;78;26328;-80
2021/01/11 09:29:29;;;;;;;72.60;33.18;;;;;;;1.05;83.14;101174.85;1776061;78;25831;-82
2021/01/11 09:31:56;;;;;;;72.82;33.08;;;;;;;1.06;83.05;101173.06;1714599;81;25818;-81
2021/01/11 09:34:24;;;;;;;74.00;34.23;;;;;;;1.10;83.13;101178.01;1695900;81;28719;-79
2021/01/11 09:36:52;;;;;;;67.37;32.95;;;;;;;1.13;83.13;101175.16;1717727;81;25881;-80
2021/01/11 09:39:19;;;;;;;73.37;35.65;;;;;;;1.20;83.06;101172.88;1728430;82;26025;-80
2021/01/11 09:41:56;;;;;;;68.17;32.20;;;;;;;1.24;82.93;101166.45;1732907;81;25892;-78
2021/01/11 09:44:23;;;;;;;72.30;33.95;;;;;;;1.28;82.78;101170.55;1731219;81;25446;-81
2021/01/11 09:46:54;;;;;;;68.78;32.28;;;;;;;1.28;82.64;101163.95;1713013;81;27543;-81
2021/01/11 09:49:22;;;;;;;74.90;33.85;;;;;;;1.28;82.62;101159.98;1719145;81;25461;-80
2021/01/11 09:51:51;;;;;;;73.47;35.65;;;;;;;1.31;82.71;101157.95;1683173;81;25659;-81
2021/01/11 09:54:20;;;;;;;62.58;30.27;;;;;;;1.33;82.62;101159.14;1741925;81;26144;-81
2021/01/11 09:56:47;;;;;;;64.67;32.90;;;;;;;1.33;82.27;101163.95;1729009;82;26043;-80
2021/01/11 09:59:15;;;;;;;75.12;32.13;;;;;;;1.34;82.40;101165.66;1731171;81;28601;-81
2021/01/11 10:01:49;;;;;;;68.57;30.62;;;;;;;1.38;82.40;101160.98;1755989;81;26185;-78
2021/01/11 10:04:19;;;;;;;72.08;33.80;;;;;;;1.40;82.29;101166.51;1726295;82;25809;-82
2021/01/11 10:06:53;;;;;;;78.07;34.90;;;;;;;1.45;82.45;101162.21;1692194;83;26521;-80
2021/01/11 10:09:29;;;;;;;74.10;30.88;;;;;;;1.49;82.34;101158.38;1702980;83;26780;-79
2021/01/11 10:12:00;;;;;;;68.62;30.17;;;;;;;1.53;82.33;101154.55;1731085;81;27111;-79
2021/01/11 10:14:28;;;;;;;69.20;33.70;;;;;;;1.58;82.14;101163.45;1795128;79;25789;-79
2021/01/11 10:16:55;;;;;;;75.65;34.63;;;;;;;1.56;82.10;101156.47;1738445;79;25824;-79
2021/01/11 10:19:26;;;;;;;66.57;30.92;;;;;;;1.58;81.78;101160.81;1778137;79;25791;-79
2021/01/11 10:21:56;;;;;;;79.15;33.63;;;;;;;1.56;81.50;101154.33;1775107;79;26391;-81
2021/01/11 10:24:24;;;;;;;64.95;31.35;;;;;;;1.57;81.40;101152.03;1794107;79;27534;-80
2021/01/11 10:26:52;;;;;;;68.10;30.72;;;;;;;1.55;81.04;101156.13;1749186;80;26478;-79
2021/01/11 10:29:23;;;;;;;65.90;30.62;;;;;;;1.55;81.64;101152.63;1774177;79;25807;-80
2021/01/11 10:31:51;;;;;;;64.17;30.62;;;;;;;1.63;81.82;101149.40;1766834;80;25847;-80
2021/01/11 10:34:21;;;;;;;66.02;31.97;;;;;;;1.70;81.84;101158.08;1780064;80;26158;-80
2021/01/11 10:36:51;;;;;;;66.42;31.17;;;;;;;1.77;81.46;101153.17;1790177;78;27599;-81
2021/01/11 10:39:25;;;;;;;61.77;28.45;;;;;;;1.74;81.09;101154.23;1770778;79;25870;-83
2021/01/11 10:41:55;;;;;;;64.07;31.48;;;;;;;1.70;80.88;101149.30;1764108;80;25882;-81
2021/01/11 10:44:24;;;;;;;59.70;28.42;;;;;;;1.67;80.83;101153.02;1780218;79;26097;-81
2021/01/11 10:49:33;;;;;;;65.75;28.52;;;;;;;1.60;80.27;101144.37;1789260;79;25788;-82
2021/01/11 10:52:01;;;;;;;65.03;30.30;;;;;;;1.52;80.65;101146.25;1706332;80;25838;-80
2021/01/11 10:54:28;;;;;;;67.97;30.97;;;;;;;1.46;80.46;101142.76;1728549;80;27742;-81
2021/01/11 10:56:57;;;;;;;63.85;30.20;;;;;;;1.41;80.14;101137.82;1698946;82;26099;-80
2021/01/11 10:59:25;;;;;;;63.45;29.87;;;;;;;1.38;80.56;101135.91;1735776;82;26575;-81
2021/01/11 11:01:52;;;;;;;66.97;28.47;;;;;;;1.38;80.73;101134.58;1653566;82;25768;-80
2021/01/11 11:04:21;;;;;;;64.55;30.08;;;;;;;1.40;80.78;101134.84;1656597;85;26042;-82
2021/01/11 11:06:50;;;;;;;63.85;28.67;;;;;;;1.40;80.72;101128.70;1652947;85;27120;-81
2021/01/11 11:09:17;;;;;;;69.00;31.33;;;;;;;1.42;80.88;101121.52;1672193;85;25715;-80
2021/01/11 11:11:52;;;;;;;64.05;29.50;;;;;;;1.42;80.73;101126.32;1609307;85;25918;-83
2021/01/11 11:14:19;;;;;;;62.00;28.00;;;;;;;1.42;80.91;101121.05;1659254;85;25900;-82
2021/01/11 11:16:47;;;;;;;71.75;30.25;;;;;;;1.42;80.70;101115.77;1639718;85;26468;-84
2021/01/11 11:19:15;;;;;;;65.45;29.85;;;;;;;1.41;80.76;101117.21;1652453;85;27749;-82
2021/01/11 11:21:42;;;;;;;62.50;28.95;;;;;;;1.40;80.96;101112.41;1596977;85;26236;-85
2021/01/11 11:24:10;;;;;;;69.55;31.33;;;;;;;1.39;80.50;101109.39;1615093;85;25773;-84
2021/01/11 11:26:37;;;;;;;64.10;30.92;;;;;;;1.40;81.07;101114.19;1667541;83;25800;-84
2021/01/11 11:29:05;;;;;;;64.67;27.73;;;;;;;1.43;81.18;101108.70;1674965;85;26122;-82
2021/01/11 11:31:33;;;;;;;70.37;31.37;;;;;;;1.44;81.27;101108.57;1657151;85;27557;-85
2021/01/11 11:34:01;;;;;;;63.00;29.02;;;;;;;1.47;81.13;101100.91;1616281;85;26196;-85
2021/01/11 11:36:29;;;;;;;64.85;29.32;;;;;;;1.50;81.06;101098.86;1674926;84;25996;-84
2021/01/11 11:38:56;;;;;;;60.38;28.00;;;;;;;1.54;81.25;101097.66;1682932;84;25811;-85
2021/01/11 11:41:23;;;;;;;68.25;32.90;;;;;;;1.55;81.09;101091.91;1619370;85;25896;-84